sensor_id;sensor_type;location;lat;lon;timestamp;P1;durP1;ratioP1;P2;durP2;ratioP2
23565;SDS011;22140;48.988;8.544;2022-07-22T00:00:24;12.87;;;5.90;;
23565;SDS011;22140;48.988;8.544;2022-07-22T00:05:26;10.43;;;5.45;;
23565;SDS011;22140;48.988;8.544;2022-07-22T00:10:27;10.68;;;4.95;;
23565;SDS011;22140;48.988;8.544;2022-07-22T00:15:29;12.17;;;5.50;;
23565;SDS011;22140;48.988;8.544;2022-07-22T00:20:31;9.73;;;5.37;;
23565;SDS011;22140;48.988;8.544;2022-07-22T00:25:32;12.45;;;5.60;;
23565;SDS011;22140;48.988;8.544;2022-07-22T00:30:34;11.90;;;5.63;;
23565;SDS011;22140;48.988;8.544;2022-07-22T00:35:35;11.50;;;5.83;;
23565;SDS011;22140;48.988;8.544;2022-07-22T00:40:43;10.73;;;5.47;;
23565;SDS011;22140;48.988;8.544;2022-07-22T00:45:44;12.27;;;6.28;;
23565;SDS011;22140;48.988;8.544;2022-07-22T00:50:46;10.47;;;6.00;;
23565;SDS011;22140;48.988;8.544;2022-07-22T00:55:47;10.60;;;5.75;;
23565;SDS011;22140;48.988;8.544;2022-07-22T01:00:48;11.98;;;6.28;;
23565;SDS011;22140;48.988;8.544;2022-07-22T01:05:50;11.33;;;6.10;;
23565;SDS011;22140;48.988;8.544;2022-07-22T01:10:51;13.17;;;6.27;;
23565;SDS011;22140;48.988;8.544;2022-07-22T01:15:52;11.35;;;6.32;;
23565;SDS011;22140;48.988;8.544;2022-07-22T01:20:54;9.20;;;5.38;;
23565;SDS011;22140;48.988;8.544;2022-07-22T01:25:55;11.47;;;5.30;;
23565;SDS011;22140;48.988;8.544;2022-07-22T01:30:56;10.85;;;5.70;;
23565;SDS011;22140;48.988;8.544;2022-07-22T01:35:58;15.68;;;6.55;;
23565;SDS011;22140;48.988;8.544;2022-07-22T01:40:59;10.57;;;5.70;;
23565;SDS011;22140;48.988;8.544;2022-07-22T01:46:00;12.52;;;5.68;;
23565;SDS011;22140;48.988;8.544;2022-07-22T01:51:02;10.73;;;6.05;;
23565;SDS011;22140;48.988;8.544;2022-07-22T01:56:04;12.63;;;6.00;;
23565;SDS011;22140;48.988;8.544;2022-07-22T02:01:05;10.87;;;6.00;;
23565;SDS011;22140;48.988;8.544;2022-07-22T02:06:06;12.63;;;5.90;;
23565;SDS011;22140;48.988;8.544;2022-07-22T02:11:08;14.57;;;6.20;;
23565;SDS011;22140;48.988;8.544;2022-07-22T02:16:09;10.57;;;5.20;;
23565;SDS011;22140;48.988;8.544;2022-07-22T02:21:19;11.32;;;5.93;;
23565;SDS011;22140;48.988;8.544;2022-07-22T02:26:20;11.98;;;6.10;;
23565;SDS011;22140;48.988;8.544;2022-07-22T02:31:22;11.33;;;6.00;;
23565;SDS011;22140;48.988;8.544;2022-07-22T02:36:23;11.10;;;6.15;;
23565;SDS011;22140;48.988;8.544;2022-07-22T02:41:25;10.48;;;6.03;;
23565;SDS011;22140;48.988;8.544;2022-07-22T02:46:28;10.83;;;6.20;;
23565;SDS011;22140;48.988;8.544;2022-07-22T02:51:32;13.83;;;6.07;;
23565;SDS011;22140;48.988;8.544;2022-07-22T02:56:33;10.88;;;5.80;;
23565;SDS011;22140;48.988;8.544;2022-07-22T03:01:35;11.70;;;6.28;;
23565;SDS011;22140;48.988;8.544;2022-07-22T03:06:36;12.30;;;6.10;;
23565;SDS011;22140;48.988;8.544;2022-07-22T03:11:37;12.77;;;6.15;;
23565;SDS011;22140;48.988;8.544;2022-07-22T03:16:39;10.02;;;5.95;;
23565;SDS011;22140;48.988;8.544;2022-07-22T03:21:40;13.37;;;6.43;;
23565;SDS011;22140;48.988;8.544;2022-07-22T03:26:42;11.98;;;6.25;;
23565;SDS011;22140;48.988;8.544;2022-07-22T03:31:43;11.70;;;6.32;;
23565;SDS011;22140;48.988;8.544;2022-07-22T03:36:44;11.53;;;6.13;;
23565;SDS011;22140;48.988;8.544;2022-07-22T03:41:45;12.53;;;6.63;;
23565;SDS011;22140;48.988;8.544;2022-07-22T03:46:47;13.07;;;6.43;;
23565;SDS011;22140;48.988;8.544;2022-07-22T03:51:48;14.75;;;6.45;;
23565;SDS011;22140;48.988;8.544;2022-07-22T03:56:49;11.83;;;6.03;;
23565;SDS011;22140;48.988;8.544;2022-07-22T04:01:51;14.52;;;6.38;;
23565;SDS011;22140;48.988;8.544;2022-07-22T04:06:53;11.80;;;6.20;;
23565;SDS011;22140;48.988;8.544;2022-07-22T04:11:54;12.40;;;6.60;;
23565;SDS011;22140;48.988;8.544;2022-07-22T04:16:55;12.55;;;6.00;;
23565;SDS011;22140;48.988;8.544;2022-07-22T04:21:57;11.43;;;6.20;;
23565;SDS011;22140;48.988;8.544;2022-07-22T04:26:58;12.07;;;6.50;;
23565;SDS011;22140;48.988;8.544;2022-07-22T04:31:59;12.97;;;6.83;;
23565;SDS011;22140;48.988;8.544;2022-07-22T04:37:03;12.50;;;6.45;;
23565;SDS011;22140;48.988;8.544;2022-07-22T04:42:04;13.82;;;6.65;;
23565;SDS011;22140;48.988;8.544;2022-07-22T04:47:06;11.63;;;6.27;;
23565;SDS011;22140;48.988;8.544;2022-07-22T04:52:09;13.85;;;7.00;;
23565;SDS011;22140;48.988;8.544;2022-07-22T04:57:10;15.43;;;7.47;;
23565;SDS011;22140;48.988;8.544;2022-07-22T05:02:12;15.00;;;7.20;;
23565;SDS011;22140;48.988;8.544;2022-07-22T05:07:13;13.45;;;6.63;;
23565;SDS011;22140;48.988;8.544;2022-07-22T05:12:15;15.77;;;7.10;;
23565;SDS011;22140;48.988;8.544;2022-07-22T05:17:16;10.60;;;6.13;;
23565;SDS011;22140;48.988;8.544;2022-07-22T05:22:17;12.53;;;7.00;;
23565;SDS011;22140;48.988;8.544;2022-07-22T05:27:19;10.63;;;6.10;;
23565;SDS011;22140;48.988;8.544;2022-07-22T05:32:20;11.30;;;6.38;;
23565;SDS011;22140;48.988;8.544;2022-07-22T05:37:21;12.77;;;6.87;;
23565;SDS011;22140;48.988;8.544;2022-07-22T05:42:23;11.88;;;6.65;;
23565;SDS011;22140;48.988;8.544;2022-07-22T05:47:24;10.70;;;6.38;;
23565;SDS011;22140;48.988;8.544;2022-07-22T05:52:25;13.37;;;6.97;;
23565;SDS011;22140;48.988;8.544;2022-07-22T05:57:29;13.95;;;6.65;;
23565;SDS011;22140;48.988;8.544;2022-07-22T06:02:31;15.38;;;7.25;;
23565;SDS011;22140;48.988;8.544;2022-07-22T06:07:32;13.07;;;7.03;;
23565;SDS011;22140;48.988;8.544;2022-07-22T06:12:33;13.07;;;7.00;;
23565;SDS011;22140;48.988;8.544;2022-07-22T06:17:35;15.10;;;7.60;;
23565;SDS011;22140;48.988;8.544;2022-07-22T06:22:38;12.13;;;7.00;;
23565;SDS011;22140;48.988;8.544;2022-07-22T06:27:40;11.30;;;7.07;;
23565;SDS011;22140;48.988;8.544;2022-07-22T06:32:41;14.55;;;7.45;;
23565;SDS011;22140;48.988;8.544;2022-07-22T06:37:53;13.52;;;7.15;;
23565;SDS011;22140;48.988;8.544;2022-07-22T06:43:06;13.30;;;7.87;;
23565;SDS011;22140;48.988;8.544;2022-07-22T06:48:07;14.20;;;7.50;;
23565;SDS011;22140;48.988;8.544;2022-07-22T06:53:09;13.85;;;7.40;;
23565;SDS011;22140;48.988;8.544;2022-07-22T06:58:10;12.77;;;7.13;;
23565;SDS011;22140;48.988;8.544;2022-07-22T07:03:11;14.43;;;8.20;;
23565;SDS011;22140;48.988;8.544;2022-07-22T07:08:33;15.20;;;7.70;;
23565;SDS011;22140;48.988;8.544;2022-07-22T07:13:35;14.65;;;7.40;;
23565;SDS011;22140;48.988;8.544;2022-07-22T07:18:36;11.40;;;7.50;;
23565;SDS011;22140;48.988;8.544;2022-07-22T07:23:38;12.50;;;8.43;;
23565;SDS011;22140;48.988;8.544;2022-07-22T07:28:40;12.50;;;7.70;;
23565;SDS011;22140;48.988;8.544;2022-07-22T07:33:42;13.37;;;8.00;;
23565;SDS011;22140;48.988;8.544;2022-07-22T07:38:43;11.25;;;7.43;;
23565;SDS011;22140;48.988;8.544;2022-07-22T07:43:44;12.15;;;7.45;;
23565;SDS011;22140;48.988;8.544;2022-07-22T07:48:46;11.17;;;7.10;;
23565;SDS011;22140;48.988;8.544;2022-07-22T07:53:49;11.90;;;7.60;;
23565;SDS011;22140;48.988;8.544;2022-07-22T07:58:52;12.20;;;6.90;;
23565;SDS011;22140;48.988;8.544;2022-07-22T08:04:13;11.00;;;7.05;;
23565;SDS011;22140;48.988;8.544;2022-07-22T08:09:35;14.20;;;7.50;;
23565;SDS011;22140;48.988;8.544;2022-07-22T08:14:36;11.85;;;7.03;;
23565;SDS011;22140;48.988;8.544;2022-07-22T08:19:38;12.32;;;7.70;;
23565;SDS011;22140;48.988;8.544;2022-07-22T08:24:39;11.13;;;7.40;;
23565;SDS011;22140;48.988;8.544;2022-07-22T08:29:40;11.13;;;7.85;;
23565;SDS011;22140;48.988;8.544;2022-07-22T08:34:42;11.27;;;7.20;;
23565;SDS011;22140;48.988;8.544;2022-07-22T08:39:43;13.50;;;7.10;;
23565;SDS011;22140;48.988;8.544;2022-07-22T08:44:44;12.13;;;7.40;;
23565;SDS011;22140;48.988;8.544;2022-07-22T08:49:46;11.52;;;7.00;;
23565;SDS011;22140;48.988;8.544;2022-07-22T08:54:47;11.10;;;7.00;;
23565;SDS011;22140;48.988;8.544;2022-07-22T08:59:49;12.43;;;7.27;;
23565;SDS011;22140;48.988;8.544;2022-07-22T09:04:52;10.65;;;7.20;;
23565;SDS011;22140;48.988;8.544;2022-07-22T09:09:55;10.52;;;6.97;;
23565;SDS011;22140;48.988;8.544;2022-07-22T09:14:57;10.50;;;7.40;;
23565;SDS011;22140;48.988;8.544;2022-07-22T09:19:59;9.18;;;6.72;;
23565;SDS011;22140;48.988;8.544;2022-07-22T09:25:16;10.48;;;6.85;;
23565;SDS011;22140;48.988;8.544;2022-07-22T09:30:22;11.47;;;7.57;;
23565;SDS011;22140;48.988;8.544;2022-07-22T09:35:25;11.23;;;7.17;;
23565;SDS011;22140;48.988;8.544;2022-07-22T09:40:28;16.67;;;7.90;;
23565;SDS011;22140;48.988;8.544;2022-07-22T09:45:31;10.52;;;7.45;;
23565;SDS011;22140;48.988;8.544;2022-07-22T09:50:33;12.53;;;7.30;;
23565;SDS011;22140;48.988;8.544;2022-07-22T09:55:37;10.75;;;6.70;;
23565;SDS011;22140;48.988;8.544;2022-07-22T10:00:40;11.48;;;6.65;;
23565;SDS011;22140;48.988;8.544;2022-07-22T10:05:42;10.33;;;7.37;;
23565;SDS011;22140;48.988;8.544;2022-07-22T10:10:44;11.88;;;7.25;;
23565;SDS011;22140;48.988;8.544;2022-07-22T10:15:45;11.00;;;6.43;;
23565;SDS011;22140;48.988;8.544;2022-07-22T10:20:56;10.33;;;7.10;;
23565;SDS011;22140;48.988;8.544;2022-07-22T10:26:01;11.73;;;6.73;;
23565;SDS011;22140;48.988;8.544;2022-07-22T10:36:29;11.88;;;6.95;;
23565;SDS011;22140;48.988;8.544;2022-07-22T10:41:34;9.90;;;7.07;;
23565;SDS011;22140;48.988;8.544;2022-07-22T10:46:48;10.90;;;7.10;;
23565;SDS011;22140;48.988;8.544;2022-07-22T10:57:28;10.30;;;6.80;;
23565;SDS011;22140;48.988;8.544;2022-07-22T11:02:38;12.57;;;7.00;;
23565;SDS011;22140;48.988;8.544;2022-07-22T11:07:43;11.63;;;6.88;;
23565;SDS011;22140;48.988;8.544;2022-07-22T11:12:48;12.23;;;6.80;;
23565;SDS011;22140;48.988;8.544;2022-07-22T11:17:51;11.37;;;6.90;;
23565;SDS011;22140;48.988;8.544;2022-07-22T11:22:56;11.82;;;7.43;;
23565;SDS011;22140;48.988;8.544;2022-07-22T11:27:58;11.70;;;7.05;;
23565;SDS011;22140;48.988;8.544;2022-07-22T11:33:01;10.33;;;6.53;;
23565;SDS011;22140;48.988;8.544;2022-07-22T11:38:03;12.25;;;7.40;;
23565;SDS011;22140;48.988;8.544;2022-07-22T11:43:06;12.35;;;7.10;;
23565;SDS011;22140;48.988;8.544;2022-07-22T11:48:08;11.20;;;7.03;;
23565;SDS011;22140;48.988;8.544;2022-07-22T11:53:09;11.63;;;6.53;;
23565;SDS011;22140;48.988;8.544;2022-07-22T11:58:11;10.98;;;6.78;;
23565;SDS011;22140;48.988;8.544;2022-07-22T12:03:12;16.93;;;7.10;;
23565;SDS011;22140;48.988;8.544;2022-07-22T12:08:13;11.33;;;6.57;;
23565;SDS011;22140;48.988;8.544;2022-07-22T12:13:15;10.30;;;6.78;;
23565;SDS011;22140;48.988;8.544;2022-07-22T12:18:17;10.63;;;6.65;;
23565;SDS011;22140;48.988;8.544;2022-07-22T12:23:18;10.70;;;6.43;;
23565;SDS011;22140;48.988;8.544;2022-07-22T12:28:20;10.38;;;6.35;;
23565;SDS011;22140;48.988;8.544;2022-07-22T12:33:22;11.80;;;6.70;;
23565;SDS011;22140;48.988;8.544;2022-07-22T12:38:24;10.50;;;6.30;;
23565;SDS011;22140;48.988;8.544;2022-07-22T12:43:25;10.18;;;6.10;;
23565;SDS011;22140;48.988;8.544;2022-07-22T12:48:28;10.32;;;6.30;;
23565;SDS011;22140;48.988;8.544;2022-07-22T12:53:30;13.37;;;6.50;;
23565;SDS011;22140;48.988;8.544;2022-07-22T12:58:34;13.40;;;6.43;;
23565;SDS011;22140;48.988;8.544;2022-07-22T13:03:39;11.95;;;6.55;;
23565;SDS011;22140;48.988;8.544;2022-07-22T13:08:40;10.18;;;6.60;;
23565;SDS011;22140;48.988;8.544;2022-07-22T13:13:46;11.43;;;6.80;;
23565;SDS011;22140;48.988;8.544;2022-07-22T13:18:49;11.98;;;7.00;;
23565;SDS011;22140;48.988;8.544;2022-07-22T13:23:51;10.90;;;6.63;;
23565;SDS011;22140;48.988;8.544;2022-07-22T13:28:52;9.27;;;6.37;;
23565;SDS011;22140;48.988;8.544;2022-07-22T13:33:54;9.70;;;6.32;;
23565;SDS011;22140;48.988;8.544;2022-07-22T13:38:55;11.48;;;6.80;;
23565;SDS011;22140;48.988;8.544;2022-07-22T13:43:57;11.47;;;6.50;;
23565;SDS011;22140;48.988;8.544;2022-07-22T13:48:58;10.10;;;5.80;;
23565;SDS011;22140;48.988;8.544;2022-07-22T13:54:00;11.77;;;6.28;;
23565;SDS011;22140;48.988;8.544;2022-07-22T13:59:02;11.43;;;7.18;;
23565;SDS011;22140;48.988;8.544;2022-07-22T14:04:04;12.33;;;6.33;;
23565;SDS011;22140;48.988;8.544;2022-07-22T14:09:09;9.60;;;6.50;;
23565;SDS011;22140;48.988;8.544;2022-07-22T14:14:30;12.48;;;5.82;;
23565;SDS011;22140;48.988;8.544;2022-07-22T14:19:31;10.57;;;6.30;;
23565;SDS011;22140;48.988;8.544;2022-07-22T14:24:33;9.80;;;6.50;;
23565;SDS011;22140;48.988;8.544;2022-07-22T14:29:34;11.05;;;6.40;;
23565;SDS011;22140;48.988;8.544;2022-07-22T14:34:35;10.60;;;6.33;;
23565;SDS011;22140;48.988;8.544;2022-07-22T14:39:37;10.40;;;6.50;;
23565;SDS011;22140;48.988;8.544;2022-07-22T14:44:38;11.95;;;6.20;;
23565;SDS011;22140;48.988;8.544;2022-07-22T14:49:39;10.80;;;6.55;;
23565;SDS011;22140;48.988;8.544;2022-07-22T14:54:41;9.20;;;6.10;;
23565;SDS011;22140;48.988;8.544;2022-07-22T14:59:42;10.45;;;6.47;;
23565;SDS011;22140;48.988;8.544;2022-07-22T15:04:43;11.80;;;6.28;;
23565;SDS011;22140;48.988;8.544;2022-07-22T15:09:45;10.40;;;6.83;;
23565;SDS011;22140;48.988;8.544;2022-07-22T15:14:46;10.32;;;6.75;;
23565;SDS011;22140;48.988;8.544;2022-07-22T15:19:47;10.80;;;6.93;;
23565;SDS011;22140;48.988;8.544;2022-07-22T15:24:49;10.77;;;6.57;;
23565;SDS011;22140;48.988;8.544;2022-07-22T15:29:50;10.00;;;6.10;;
23565;SDS011;22140;48.988;8.544;2022-07-22T15:34:52;11.35;;;6.38;;
23565;SDS011;22140;48.988;8.544;2022-07-22T15:39:53;12.15;;;6.72;;
23565;SDS011;22140;48.988;8.544;2022-07-22T15:44:54;9.40;;;5.73;;
23565;SDS011;22140;48.988;8.544;2022-07-22T15:49:56;12.73;;;6.57;;
23565;SDS011;22140;48.988;8.544;2022-07-22T15:54:57;9.95;;;6.32;;
23565;SDS011;22140;48.988;8.544;2022-07-22T15:59:58;9.30;;;6.00;;
23565;SDS011;22140;48.988;8.544;2022-07-22T16:05:00;14.10;;;6.57;;
23565;SDS011;22140;48.988;8.544;2022-07-22T16:10:02;12.10;;;6.30;;
23565;SDS011;22140;48.988;8.544;2022-07-22T16:15:04;9.50;;;6.10;;
23565;SDS011;22140;48.988;8.544;2022-07-22T16:20:06;12.80;;;6.57;;
23565;SDS011;22140;48.988;8.544;2022-07-22T16:25:11;13.48;;;6.28;;
23565;SDS011;22140;48.988;8.544;2022-07-22T16:30:12;10.05;;;6.22;;
23565;SDS011;22140;48.988;8.544;2022-07-22T16:35:13;11.40;;;6.27;;
23565;SDS011;22140;48.988;8.544;2022-07-22T16:40:16;10.48;;;6.22;;
23565;SDS011;22140;48.988;8.544;2022-07-22T16:45:17;11.27;;;6.47;;
23565;SDS011;22140;48.988;8.544;2022-07-22T16:50:25;9.93;;;6.40;;
23565;SDS011;22140;48.988;8.544;2022-07-22T16:55:29;10.23;;;6.57;;
23565;SDS011;22140;48.988;8.544;2022-07-22T17:00:30;11.07;;;6.63;;
23565;SDS011;22140;48.988;8.544;2022-07-22T17:05:32;8.87;;;6.27;;
23565;SDS011;22140;48.988;8.544;2022-07-22T17:10:33;9.60;;;6.60;;
23565;SDS011;22140;48.988;8.544;2022-07-22T17:15:35;10.43;;;6.15;;
23565;SDS011;22140;48.988;8.544;2022-07-22T17:20:36;10.43;;;6.95;;
23565;SDS011;22140;48.988;8.544;2022-07-22T17:25:37;12.00;;;6.63;;
23565;SDS011;22140;48.988;8.544;2022-07-22T17:30:39;9.00;;;5.72;;
23565;SDS011;22140;48.988;8.544;2022-07-22T17:35:40;10.80;;;6.88;;
23565;SDS011;22140;48.988;8.544;2022-07-22T17:40:43;13.57;;;6.60;;
23565;SDS011;22140;48.988;8.544;2022-07-22T17:45:44;13.32;;;6.95;;
23565;SDS011;22140;48.988;8.544;2022-07-22T17:50:46;14.98;;;6.60;;
23565;SDS011;22140;48.988;8.544;2022-07-22T17:55:48;10.77;;;6.40;;
23565;SDS011;22140;48.988;8.544;2022-07-22T18:01:05;11.40;;;6.77;;
23565;SDS011;22140;48.988;8.544;2022-07-22T18:06:07;15.50;;;6.38;;
23565;SDS011;22140;48.988;8.544;2022-07-22T18:11:12;12.98;;;6.65;;
23565;SDS011;22140;48.988;8.544;2022-07-22T18:16:14;10.67;;;6.40;;
23565;SDS011;22140;48.988;8.544;2022-07-22T18:21:17;10.27;;;6.57;;
23565;SDS011;22140;48.988;8.544;2022-07-22T18:26:19;11.98;;;6.53;;
23565;SDS011;22140;48.988;8.544;2022-07-22T18:31:22;12.47;;;6.93;;
23565;SDS011;22140;48.988;8.544;2022-07-22T18:36:23;11.45;;;6.93;;
23565;SDS011;22140;48.988;8.544;2022-07-22T18:41:25;10.38;;;6.65;;
23565;SDS011;22140;48.988;8.544;2022-07-22T18:46:26;12.17;;;6.77;;
23565;SDS011;22140;48.988;8.544;2022-07-22T18:51:27;11.10;;;6.80;;
23565;SDS011;22140;48.988;8.544;2022-07-22T18:56:29;12.45;;;7.30;;
23565;SDS011;22140;48.988;8.544;2022-07-22T19:01:30;13.25;;;7.60;;
23565;SDS011;22140;48.988;8.544;2022-07-22T19:06:31;11.57;;;6.70;;
23565;SDS011;22140;48.988;8.544;2022-07-22T19:11:33;11.98;;;7.38;;
23565;SDS011;22140;48.988;8.544;2022-07-22T19:16:35;13.93;;;7.20;;
23565;SDS011;22140;48.988;8.544;2022-07-22T19:21:36;13.37;;;7.43;;
23565;SDS011;22140;48.988;8.544;2022-07-22T19:26:38;12.23;;;7.38;;
23565;SDS011;22140;48.988;8.544;2022-07-22T19:31:39;12.63;;;7.60;;
23565;SDS011;22140;48.988;8.544;2022-07-22T19:36:41;13.40;;;7.03;;
23565;SDS011;22140;48.988;8.544;2022-07-22T19:41:42;12.70;;;7.07;;
23565;SDS011;22140;48.988;8.544;2022-07-22T19:46:43;11.27;;;7.07;;
23565;SDS011;22140;48.988;8.544;2022-07-22T19:51:45;11.25;;;7.10;;
23565;SDS011;22140;48.988;8.544;2022-07-22T19:56:47;13.00;;;6.83;;
23565;SDS011;22140;48.988;8.544;2022-07-22T20:01:48;12.65;;;6.72;;
23565;SDS011;22140;48.988;8.544;2022-07-22T20:06:50;12.35;;;7.00;;
23565;SDS011;22140;48.988;8.544;2022-07-22T20:11:52;10.53;;;7.10;;
23565;SDS011;22140;48.988;8.544;2022-07-22T20:16:53;11.30;;;6.88;;
23565;SDS011;22140;48.988;8.544;2022-07-22T20:21:55;13.95;;;7.80;;
23565;SDS011;22140;48.988;8.544;2022-07-22T20:26:57;12.07;;;7.13;;
23565;SDS011;22140;48.988;8.544;2022-07-22T20:31:58;11.83;;;7.07;;
23565;SDS011;22140;48.988;8.544;2022-07-22T20:37:00;19.23;;;8.68;;
23565;SDS011;22140;48.988;8.544;2022-07-22T20:42:02;14.05;;;8.27;;
23565;SDS011;22140;48.988;8.544;2022-07-22T20:47:24;13.73;;;8.10;;
23565;SDS011;22140;48.988;8.544;2022-07-22T20:52:25;12.60;;;7.70;;
23565;SDS011;22140;48.988;8.544;2022-07-22T20:57:26;12.82;;;7.28;;
23565;SDS011;22140;48.988;8.544;2022-07-22T21:02:28;15.43;;;7.63;;
23565;SDS011;22140;48.988;8.544;2022-07-22T21:07:30;11.85;;;6.90;;
23565;SDS011;22140;48.988;8.544;2022-07-22T21:12:32;14.30;;;7.25;;
23565;SDS011;22140;48.988;8.544;2022-07-22T21:17:33;11.75;;;7.25;;
23565;SDS011;22140;48.988;8.544;2022-07-22T21:22:34;14.57;;;7.30;;
23565;SDS011;22140;48.988;8.544;2022-07-22T21:27:36;11.65;;;7.00;;
23565;SDS011;22140;48.988;8.544;2022-07-22T21:32:38;12.68;;;7.68;;
23565;SDS011;22140;48.988;8.544;2022-07-22T21:37:40;13.03;;;7.43;;
23565;SDS011;22140;48.988;8.544;2022-07-22T21:42:42;12.93;;;7.32;;
23565;SDS011;22140;48.988;8.544;2022-07-22T21:47:43;13.15;;;7.40;;
23565;SDS011;22140;48.988;8.544;2022-07-22T21:52:44;12.73;;;7.33;;
23565;SDS011;22140;48.988;8.544;2022-07-22T21:57:46;12.65;;;7.22;;
23565;SDS011;22140;48.988;8.544;2022-07-22T22:02:48;13.38;;;7.28;;
23565;SDS011;22140;48.988;8.544;2022-07-22T22:07:49;11.60;;;7.60;;
23565;SDS011;22140;48.988;8.544;2022-07-22T22:12:52;12.30;;;7.30;;
23565;SDS011;22140;48.988;8.544;2022-07-22T22:17:53;14.23;;;8.00;;
23565;SDS011;22140;48.988;8.544;2022-07-22T22:22:55;13.07;;;8.18;;
23565;SDS011;22140;48.988;8.544;2022-07-22T22:27:56;14.27;;;7.40;;
23565;SDS011;22140;48.988;8.544;2022-07-22T22:32:57;15.02;;;6.85;;
23565;SDS011;22140;48.988;8.544;2022-07-22T22:37:59;12.25;;;6.93;;
23565;SDS011;22140;48.988;8.544;2022-07-22T22:43:00;11.17;;;7.57;;
23565;SDS011;22140;48.988;8.544;2022-07-22T22:48:02;12.40;;;7.18;;
23565;SDS011;22140;48.988;8.544;2022-07-22T22:53:03;13.13;;;7.68;;
23565;SDS011;22140;48.988;8.544;2022-07-22T22:58:04;13.77;;;7.47;;
23565;SDS011;22140;48.988;8.544;2022-07-22T23:03:06;10.83;;;7.20;;
23565;SDS011;22140;48.988;8.544;2022-07-22T23:08:09;11.07;;;7.35;;
23565;SDS011;22140;48.988;8.544;2022-07-22T23:13:11;11.07;;;7.28;;
23565;SDS011;22140;48.988;8.544;2022-07-22T23:18:12;14.33;;;7.70;;
23565;SDS011;22140;48.988;8.544;2022-07-22T23:23:16;13.75;;;8.07;;
23565;SDS011;22140;48.988;8.544;2022-07-22T23:28:17;11.60;;;7.53;;
23565;SDS011;22140;48.988;8.544;2022-07-22T23:33:19;14.10;;;7.80;;
23565;SDS011;22140;48.988;8.544;2022-07-22T23:38:20;10.85;;;7.18;;
23565;SDS011;22140;48.988;8.544;2022-07-22T23:43:21;13.45;;;7.93;;
23565;SDS011;22140;48.988;8.544;2022-07-22T23:48:23;13.60;;;7.37;;
23565;SDS011;22140;48.988;8.544;2022-07-22T23:53:24;14.13;;;7.60;;
23565;SDS011;22140;48.988;8.544;2022-07-22T23:58:25;13.73;;;7.57;;
